createdAt,value
2018-11-27T00:04:16.520Z,94997.00
2018-11-27T00:09:45.822Z,94999.00
2018-11-27T00:15:15.175Z,95002.00
2018-11-27T00:20:44.461Z,94999.00
2018-11-27T00:26:13.738Z,95008.00
2018-11-27T00:31:45.053Z,95016.00
2018-11-27T00:37:14.471Z,95016.00
2018-11-27T00:42:44.435Z,95017.00
2018-11-27T00:48:14.315Z,95023.00
2018-11-27T00:53:44.302Z,95022.00
2018-11-27T00:59:16.974Z,95029.00
2018-11-27T01:04:46.152Z,95036.00
2018-11-27T01:10:21.819Z,95050.00
2018-11-27T01:15:55.032Z,95050.00
2018-11-27T01:21:25.065Z,95059.00
2018-11-27T01:26:55.048Z,95065.00
2018-11-27T01:32:24.266Z,95054.00
2018-11-27T01:37:55.112Z,95068.00
2018-11-27T01:43:24.396Z,95077.00
2018-11-27T01:48:53.695Z,95073.00
2018-11-27T01:54:22.938Z,95071.00
2018-11-27T01:59:52.231Z,95083.00
2018-11-27T02:05:22.158Z,95076.00
2018-11-27T02:10:51.419Z,95079.00
2018-11-27T02:16:20.759Z,95077.00
2018-11-27T02:21:50.015Z,95073.00
2018-11-27T02:27:19.194Z,95074.00
2018-11-27T02:32:48.511Z,95083.00
2018-11-27T02:38:17.730Z,95080.00
2018-11-27T02:43:46.966Z,95087.00
2018-11-27T02:49:16.249Z,95091.00
2018-11-27T02:54:45.539Z,95082.00
2018-11-27T03:00:18.007Z,95099.00
2018-11-27T03:05:47.255Z,95096.00
2018-11-27T03:11:16.478Z,95102.00
2018-11-27T03:16:46.698Z,95115.00
2018-11-27T03:22:15.906Z,95120.00
2018-11-27T03:27:46.237Z,95124.00
2018-11-27T03:33:15.423Z,95126.00
2018-11-27T03:38:45.585Z,95124.00
2018-11-27T03:44:14.774Z,95125.00
2018-11-27T03:49:45.080Z,95139.00
2018-11-27T03:55:15.471Z,95146.00
2018-11-27T04:00:45.101Z,95154.00
2018-11-27T04:06:15.391Z,95151.00
2018-11-27T04:11:44.614Z,95158.00
2018-11-27T04:17:13.982Z,95162.00
2018-11-27T04:22:44.157Z,95166.00
2018-11-27T04:28:13.377Z,95170.00
2018-11-27T04:33:42.606Z,95169.00
2018-11-27T04:39:11.812Z,95174.00
2018-11-27T04:44:42.117Z,95172.00
2018-11-27T04:50:13.867Z,95173.00
2018-11-27T04:55:43.062Z,95185.00
2018-11-27T05:01:12.254Z,95187.00
2018-11-27T05:06:41.518Z,95201.00
2018-11-27T05:12:10.779Z,95204.00
2018-11-27T05:17:40.066Z,95204.00
2018-11-27T05:23:09.267Z,95219.00
2018-11-27T05:28:39.527Z,95222.00
2018-11-27T05:34:09.750Z,95225.00
2018-11-27T05:39:39.081Z,95235.00
2018-11-27T05:45:13.880Z,95240.00
2018-11-27T05:50:43.138Z,95251.00
2018-11-27T05:56:18.178Z,95258.00
2018-11-27T06:01:53.357Z,95258.00
2018-11-27T06:07:32.609Z,95256.00
2018-11-27T06:13:02.914Z,95267.00
2018-11-27T06:18:32.162Z,95282.00
2018-11-27T06:24:01.435Z,95275.00
2018-11-27T06:29:30.704Z,95291.00
2018-11-27T06:35:00.009Z,95298.00
2018-11-27T06:40:31.584Z,95310.00
2018-11-27T06:46:01.015Z,95313.00
2018-11-27T06:51:30.393Z,95308.00
2018-11-27T06:56:59.783Z,95329.00
2018-11-27T07:02:35.328Z,95333.00
2018-11-27T07:08:04.667Z,95341.00
2018-11-27T07:13:34.015Z,95353.00
2018-11-27T07:19:03.331Z,95363.00
2018-11-27T07:24:52.266Z,95369.00
2018-11-27T07:30:23.757Z,95377.00
2018-11-27T07:35:53.160Z,95394.00
2018-11-27T07:41:22.603Z,95394.00
2018-11-27T07:46:52.037Z,95403.00
2018-11-27T07:52:21.393Z,95426.00
2018-11-27T07:57:52.008Z,95417.00
2018-11-27T08:03:26.118Z,95416.00
2018-11-27T08:08:55.456Z,95417.00
2018-11-27T08:14:24.812Z,95434.00
2018-11-27T08:19:54.442Z,95435.00
2018-11-27T08:25:27.883Z,95441.00
2018-11-27T08:30:57.291Z,95450.00
2018-11-27T08:36:26.551Z,95449.00
2018-11-27T08:41:55.811Z,95465.00
2018-11-27T08:47:25.030Z,95468.00
2018-11-27T08:52:58.908Z,95485.00
2018-11-27T08:58:28.207Z,95486.00
2018-11-27T09:03:57.601Z,95500.00
2018-11-27T09:09:26.923Z,95505.00
2018-11-27T09:14:56.216Z,95512.00
2018-11-27T09:20:25.570Z,95515.00
2018-11-27T09:25:54.942Z,95528.00
2018-11-27T09:31:24.403Z,95529.00
2018-11-27T09:36:53.739Z,95534.00
2018-11-27T09:42:23.119Z,95534.00
2018-11-27T09:47:54.130Z,95542.00
2018-11-27T09:53:30.121Z,95557.00
2018-11-27T09:58:59.632Z,95555.00
2018-11-27T10:04:31.067Z,95551.00
2018-11-27T10:10:00.429Z,95551.00
2018-11-27T10:15:30.157Z,95552.00
2018-11-27T10:20:59.538Z,95557.00
2018-11-27T10:26:28.865Z,95566.00
2018-11-27T10:31:58.377Z,95567.00
2018-11-27T10:37:32.606Z,95576.00
2018-11-27T10:43:02.242Z,95567.00
2018-11-27T10:48:31.888Z,95564.00
2018-11-27T10:54:01.502Z,95575.00
2018-11-27T10:59:33.141Z,95572.00
2018-11-27T11:05:05.270Z,95580.00
2018-11-27T11:10:34.770Z,95585.00
2018-11-27T11:16:04.360Z,95578.00
2018-11-27T11:21:33.893Z,95581.00
2018-11-27T11:27:03.388Z,95589.00
2018-11-27T11:32:32.856Z,95587.00
2018-11-27T11:38:02.178Z,95597.00
2018-11-27T11:43:31.553Z,95593.00
2018-11-27T11:49:01.955Z,95599.00
2018-11-27T11:54:30.372Z,95607.00
2018-11-27T11:59:59.791Z,95599.00
2018-11-27T12:05:29.241Z,95608.00
2018-11-27T12:10:58.672Z,95610.00
2018-11-27T12:16:28.696Z,95613.00
2018-11-27T12:21:57.351Z,95615.00
2018-11-27T12:27:26.837Z,95627.00
2018-11-27T12:32:56.096Z,95625.00
2018-11-27T12:38:25.404Z,95634.00
2018-11-27T12:43:54.776Z,95638.00
2018-11-27T12:49:24.171Z,95643.00
2018-11-27T12:54:53.529Z,95650.00
2018-11-27T13:00:24.592Z,95654.00
2018-11-27T13:05:53.897Z,95656.00
2018-11-27T13:11:25.290Z,95658.00
2018-11-27T13:16:54.830Z,95662.00
2018-11-27T13:22:24.094Z,95662.00
2018-11-27T13:27:54.830Z,95668.00
2018-11-27T13:33:59.523Z,95678.00
2018-11-27T13:39:36.944Z,95683.00
2018-11-27T13:45:10.330Z,95690.00
2018-11-27T13:50:39.644Z,95690.00
2018-11-27T13:56:09.035Z,95691.00
2018-11-27T14:01:38.295Z,95697.00
2018-11-27T14:07:07.554Z,95696.00
2018-11-27T14:12:36.939Z,95706.00
2018-11-27T14:18:08.780Z,95706.00
2018-11-27T14:23:38.079Z,95720.00
2018-11-27T14:29:07.821Z,95721.00
2018-11-27T14:34:37.438Z,95725.00
2018-11-27T14:40:26.170Z,95736.00
2018-11-27T14:45:57.502Z,95742.00
2018-11-27T14:51:30.354Z,95753.00
2018-11-27T14:56:59.648Z,95755.00
2018-11-27T15:02:28.989Z,95759.00
2018-11-27T15:07:58.290Z,95775.00
2018-11-27T15:13:33.716Z,95774.00
2018-11-27T15:19:04.982Z,95774.00
2018-11-27T15:24:34.300Z,95781.00
2018-11-27T15:30:04.422Z,95789.00
2018-11-27T15:35:35.043Z,95791.00
2018-11-27T15:41:07.023Z,95799.00
2018-11-27T15:46:42.129Z,95805.00
2018-11-27T15:52:11.473Z,95810.00
2018-11-27T15:57:42.915Z,95818.00
2018-11-27T16:03:15.631Z,95823.00
2018-11-27T16:08:44.946Z,95825.00
2018-11-27T16:14:18.543Z,95832.00
2018-11-27T16:19:47.863Z,95841.00
2018-11-27T16:25:19.376Z,95850.00
2018-11-27T16:30:48.654Z,95853.00
2018-11-27T16:36:18.121Z,95865.00
2018-11-27T16:41:47.419Z,95860.00
2018-11-27T16:47:16.786Z,95870.00
2018-11-27T16:52:47.572Z,95877.00
2018-11-27T16:58:16.963Z,95880.00
2018-11-27T17:03:46.367Z,95882.00
2018-11-27T17:09:15.892Z,95880.00
2018-11-27T17:14:45.956Z,95883.00
2018-11-27T17:20:32.079Z,95880.00
2018-11-27T17:26:04.083Z,95888.00
2018-11-27T17:31:35.549Z,95893.00
2018-11-27T17:37:07.939Z,95888.00
2018-11-27T17:42:39.041Z,95892.00
2018-11-27T17:48:10.638Z,95905.00
2018-11-27T17:53:40.313Z,95909.00
2018-11-27T17:59:11.290Z,95927.00
2018-11-27T18:04:40.744Z,95940.00
2018-11-27T18:10:11.513Z,95938.00
2018-11-27T18:15:40.879Z,95942.00
2018-11-27T18:21:10.182Z,95951.00
2018-11-27T18:26:39.541Z,95955.00
2018-11-27T18:32:08.936Z,95952.00
2018-11-27T18:37:38.250Z,95959.00
2018-11-27T18:43:07.770Z,95965.00
2018-11-27T18:48:37.114Z,95972.00
2018-11-27T18:54:06.915Z,95973.00
2018-11-27T18:59:36.262Z,95967.00
2018-11-27T19:05:06.401Z,95978.00
2018-11-27T19:10:35.798Z,95962.00
2018-11-27T19:16:05.671Z,95975.00
2018-11-27T19:21:35.083Z,95975.00
2018-11-27T19:27:04.758Z,95980.00
2018-11-27T19:32:34.280Z,95980.00
2018-11-27T19:38:03.674Z,95991.00
2018-11-27T19:43:33.091Z,95994.00
2018-11-27T19:49:02.502Z,95997.00
2018-11-27T19:54:36.256Z,96006.00
2018-11-27T20:00:18.441Z,96020.00
2018-11-27T20:05:47.858Z,96018.00
2018-11-27T20:11:19.473Z,96021.00
2018-11-27T20:16:49.051Z,96019.00
2018-11-27T20:22:18.441Z,96033.00
2018-11-27T20:27:47.862Z,96026.00
2018-11-27T20:33:17.151Z,96033.00
2018-11-27T20:38:46.586Z,96039.00
2018-11-27T20:44:16.143Z,96040.00
2018-11-27T20:49:45.519Z,96048.00
2018-11-27T20:55:14.914Z,96050.00
2018-11-27T21:00:46.890Z,96051.00
2018-11-27T21:06:16.514Z,96054.00
2018-11-27T21:11:46.318Z,96045.00
2018-11-27T21:17:15.990Z,96060.00
2018-11-27T21:22:47.359Z,96072.00
2018-11-27T21:28:18.535Z,96066.00
2018-11-27T21:33:48.106Z,96070.00
2018-11-27T21:39:17.506Z,96068.00
2018-11-27T21:44:46.999Z,96069.00
2018-11-27T21:50:18.173Z,96075.00
2018-11-27T21:55:47.571Z,96078.00
2018-11-27T22:01:17.138Z,96078.00
2018-11-27T22:06:46.490Z,96070.00
2018-11-27T22:12:15.807Z,96082.00
2018-11-27T22:17:46.117Z,96087.00
2018-11-27T22:23:15.530Z,96086.00
2018-11-27T22:28:44.927Z,96089.00
2018-11-27T22:34:14.195Z,96091.00
2018-11-27T22:39:43.590Z,96092.00
2018-11-27T22:45:18.811Z,96090.00
2018-11-27T22:50:48.159Z,96096.00
2018-11-27T22:56:17.625Z,96095.00
2018-11-27T23:01:47.566Z,96113.00
2018-11-27T23:07:22.202Z,96109.00
2018-11-27T23:12:51.649Z,96111.00
2018-11-27T23:18:20.901Z,96111.00
2018-11-27T23:23:50.296Z,96110.00
2018-11-27T23:29:19.571Z,96105.00
2018-11-27T23:34:48.831Z,96104.00
2018-11-27T23:40:20.169Z,96103.00
2018-11-27T23:45:49.542Z,96084.00
2018-11-27T23:51:18.818Z,96094.00
2018-11-27T23:56:48.912Z,96097.00
